• Join FlightAware (Why Join?)
  • Login
  • US Flag 
09:49PM EDT


 

Airport Tracker/Info


-or-


 

Live Flight TrackerFlight Track Log ✈ SKW6345 ✈ 01-Jun-2014 ✈ KLAX - KFAT

Flight Track Log - Related Links

Times and Time Zones

All times are in EDT time to prevent confusion due to time zone crossing. See the SKW6345 flight status page for this flight to view local times or setup timezone preferences in your user account.

Time Position Orientation Groundspeed Altitude Reporting Facility
EDT Latitude Longitude Course Direction KTS MPH feet Rate Location/Type
07:46PM 33.9500 -118.4833 338° Northwest 176 203 2,200  Level Southern California TRACON
07:47PM 33.9611 -118.5347 285° West 189 217 3,300 1,620 Climbing Los Angeles Center
07:48PM 33.9725 -118.5994 282° West 188 216 5,200 1,620 Climbing Los Angeles Center
07:49PM 34.0175 -118.6256 334° Northwest 193 222 6,700 840 Climbing Los Angeles Center
07:50PM 34.0839 -118.6342 354° North 227 261 7,000 120 Climbing Los Angeles Center
07:51PM 34.2887 -118.5860 338° Northwest  Level FlightAware Approximate
07:51PM 34.1497 -118.6450 352° North 249 287 7,000  Level Los Angeles Center
07:52PM 34.2217 -118.6542 354° North 257 296 7,800 900 Climbing Los Angeles Center
07:53PM 34.2892 -118.6617 355° North 249 287 8,900 1,080 Climbing Los Angeles Center
07:54PM 34.3711 -118.6719 354° North 247 284 10,100 1,020 Climbing Los Angeles Center
07:55PM 34.4400 -118.6803 354° North 247 284 11,100 900 Climbing Los Angeles Center
07:56PM 34.5050 -118.7125 338° Northwest 249 287 12,000 420 Climbing Los Angeles Center
07:57PM 34.5747 -118.7483 337° Northwest 273 314 12,000 60 Level Los Angeles Center
07:58PM 34.6483 -118.7850 338° Northwest 286 329 12,200 360 Climbing Los Angeles Center
07:59PM 34.7203 -118.8203 338° Northwest 283 326 12,800 720 Climbing Los Angeles Center
08:00PM 34.8117 -118.8406 350° North 281 323 13,800 960 Climbing Los Angeles Center
08:01PM 34.8847 -118.8508 353° North 270 311 14,800 900 Climbing Los Angeles Center
08:02PM 34.9539 -118.8617 353° North 258 297 15,700 780 Climbing Los Angeles Center
08:03PM 35.0228 -118.8739 352° North 253 291 16,500 780 Climbing Los Angeles Center
08:04PM 35.0925 -118.8844 353° North 253 291 17,400 960 Climbing Los Angeles Center
08:05PM 35.1750 -118.8981 352° North 253 291 18,500 900 Climbing Los Angeles Center
08:06PM 35.2469 -118.9083 353° North 255 293 19,300 660 Climbing Los Angeles Center
08:07PM 35.3183 -118.9208 352° North 258 297 19,900 300 Climbing Los Angeles Center
08:08PM 35.3950 -118.9342 352° North 267 307 20,000  Climbing Los Angeles Center
08:09PM 35.4775 -118.9469 353° North 286 329 20,000  Level Los Angeles Center
08:10PM 35.5794 -118.9650 352° North 302 348 20,000  Level Los Angeles Center
08:12PM 35.6667 -118.9806 352° North 312 359 20,000 -480 Level Los Angeles Center
08:13PM 35.7544 -118.9950 352° North 313 360 19,100 -1,140 Descending Los Angeles Center
08:14PM 35.8472 -119.0114 352° North 329 379 17,700 -1,500 Descending Los Angeles Center
08:15PM 35.9372 -119.0314 350° North 330 380 16,000 -1,620 Descending Los Angeles Center
08:16PM 36.0400 -119.0825 338° Northwest 332 382 14,400 -960 Descending Los Angeles Center
08:17PM 36.1189 -119.1208 339° North 311 358 14,100 -240 Descending Los Angeles Center
08:18PM 36.1956 -119.1572 339° North 302 348 14,000 -600 Descending Los Angeles Center
08:19PM 36.2725 -119.1928 340° North 299 344 12,900 -780 Descending Los Angeles Center
08:20PM 36.3528 -119.2325 338° Northwest 306 352 12,400 -480 Descending Los Angeles Center
08:21PM 36.4286 -119.2697 338° Northwest 305 351 11,900 -1,020 Descending Los Angeles Center
08:22PM 36.5181 -119.3206 335° Northwest 304 350 10,300 -1,740 Descending Los Angeles Center
08:23PM 36.5781 -119.3744 324° Northwest 294 338 8,400 -1,800 Descending Los Angeles Center
08:24PM 36.6217 -119.4475 307° West 276 318 6,600 -1,980 Descending Los Angeles Center
08:25PM 36.6783 -119.5464 306° West 251 289 3,800 -1,980 Descending Oakland Center
08:26PM 36.7164 -119.6122 306° West 230 265 2,100 -1,260 Descending Oakland Center
08:27PM 36.7469 -119.6658 305° West 199 229 1,300 -840 Descending Oakland Center
08:28PM 36.7703 -119.7058 306° West 143 165 400 -900 Descending Oakland Center